Time;durP1;ratioP1;P1;durP2;ratioP2;P2;SDS_P1;SDS_P2;PMS_P1;PMS_P2;Temp;Humidity;BMP_temperature;BMP_pressure;BME280_temperature;BME280_humidity;BME280_pressure;Samples;Min_cycle;Max_cycle;Signal;HPM_P1;HPM_P2
2023/07/15 00:00:17;;;;;;;3.00;0.68;;;;;;;17.15;100.00;99479.41;5044062;28;20028;-51
2023/07/15 00:02:44;;;;;;;10.30;0.68;;;;;;;17.07;100.00;99479.91;5055099;28;20044;-48
2023/07/15 00:05:20;;;;;;;6.22;0.57;;;;;;;17.06;100.00;99476.41;5052206;28;20734;-52
2023/07/15 00:07:46;;;;;;;6.18;0.30;;;;;;;17.08;100.00;99468.91;5056216;28;20060;-49
2023/07/15 00:10:11;;;;;;;5.45;0.90;;;;;;;17.05;100.00;99474.78;5047712;28;20102;-48
2023/07/15 00:12:36;;;;;;;5.10;0.85;;;;;;;17.04;100.00;99473.19;5059184;28;20036;-56
2023/07/15 00:15:02;;;;;;;3.00;0.47;;;;;;;17.05;100.00;99476.66;5044566;28;22520;-52
2023/07/15 00:17:28;;;;;;;5.28;0.30;;;;;;;16.98;100.00;99487.59;5041488;28;20763;-45
2023/07/15 00:19:53;;;;;;;7.07;0.68;;;;;;;16.93;100.00;99483.00;5048264;28;20037;-50
2023/07/15 00:22:19;;;;;;;7.72;0.75;;;;;;;17.02;100.00;99475.31;5049236;28;21263;-50
2023/07/15 00:24:46;;;;;;;2.95;0.73;;;;;;;17.00;100.00;99480.13;5038708;28;20029;-53
2023/07/15 00:27:11;;;;;;;7.18;0.95;;;;;;;16.95;100.00;99482.75;5052443;28;20132;-51
2023/07/15 00:29:36;;;;;;;3.45;0.47;;;;;;;16.97;100.00;99488.66;5048227;28;20116;-50
2023/07/15 00:32:04;;;;;;;2.05;0.30;;;;;;;16.91;100.00;99478.97;5050784;28;20064;-52
2023/07/15 00:34:30;;;;;;;3.90;1.42;;;;;;;16.95;100.00;99480.09;5051058;28;20045;-55
2023/07/15 00:36:56;;;;;;;8.27;1.55;;;;;;;16.91;100.00;99485.16;5047567;28;20043;-49
2023/07/15 00:39:21;;;;;;;6.35;0.65;;;;;;;16.94;100.00;99479.28;5052081;28;20173;-54
2023/07/15 00:41:47;;;;;;;4.40;1.30;;;;;;;16.93;100.00;99482.19;5045403;28;20036;-49
2023/07/15 00:44:15;;;;;;;3.70;1.20;;;;;;;16.89;100.00;99473.88;5049700;28;20393;-56
2023/07/15 00:47:12;;;;;;;10.13;1.58;;;;;;;16.84;100.00;99470.38;5042467;28;20051;-48
2023/07/15 00:49:38;;;;;;;3.70;1.45;;;;;;;16.73;100.00;99470.25;5048124;28;20608;-51
2023/07/15 00:52:10;;;;;;;3.53;0.40;;;;;;;16.71;100.00;99472.38;5043695;28;20094;-51
2023/07/15 00:54:38;;;;;;;7.13;0.70;;;;;;;16.68;100.00;99475.56;5050390;28;20087;-51
2023/07/15 00:57:06;;;;;;;2.63;0.47;;;;;;;16.68;100.00;99475.56;5042676;28;20306;-51
2023/07/15 00:59:32;;;;;;;5.25;0.77;;;;;;;16.65;100.00;99476.09;5051436;28;20040;-50
2023/07/15 01:01:58;;;;;;;1.63;0.25;;;;;;;16.67;100.00;99481.97;5051757;28;20065;-48
2023/07/15 01:04:23;;;;;;;4.68;0.38;;;;;;;16.70;100.00;99476.13;5045893;28;20363;-56
2023/07/15 01:06:48;;;;;;;11.93;0.50;;;;;;;16.71;100.00;99475.06;5045727;28;20152;-51
2023/07/15 01:09:14;;;;;;;10.73;0.25;;;;;;;16.57;100.00;99473.84;5043241;28;20028;-54
2023/07/15 01:11:40;;;;;;;6.88;0.88;;;;;;;16.60;100.00;99469.88;5045627;28;20142;-50
2023/07/15 01:14:06;;;;;;;10.82;2.08;;;;;;;16.54;100.00;99471.69;5041317;28;20120;-57
2023/07/15 01:16:32;;;;;;;4.00;1.25;;;;;;;16.57;100.00;99460.47;5051442;28;20111;-54
2023/07/15 01:18:58;;;;;;;5.40;1.75;;;;;;;16.46;100.00;99466.81;5047692;28;20484;-52
2023/07/15 01:21:28;;;;;;;6.18;0.55;;;;;;;16.45;100.00;99467.88;5049245;28;20112;-49
2023/07/15 01:23:54;;;;;;;7.57;0.75;;;;;;;16.53;100.00;99464.75;5045243;28;20087;-50
2023/07/15 01:26:20;;;;;;;6.97;0.63;;;;;;;16.56;100.00;99458.88;5049674;28;20466;-51
2023/07/15 01:28:45;;;;;;;3.45;0.75;;;;;;;16.57;100.00;99458.63;5040204;28;20109;-53
2023/07/15 01:31:10;;;;;;;8.15;0.98;;;;;;;16.62;100.00;99459.72;5047177;28;20037;-54
2023/07/15 01:33:36;;;;;;;5.05;0.40;;;;;;;16.64;100.00;99453.06;5040514;28;20114;-52
2023/07/15 01:36:04;;;;;;;14.02;1.95;;;;;;;16.65;100.00;99438.63;5040056;28;20375;-51
2023/07/15 01:38:30;;;;;;;1.98;1.02;;;;;;;16.66;100.00;99444.78;5035215;28;20040;-53
2023/07/15 01:40:55;;;;;;;4.93;1.63;;;;;;;16.61;100.00;99458.91;5046582;28;20031;-52
2023/07/15 01:43:20;;;;;;;7.30;0.73;;;;;;;16.62;100.00;99460.53;5045522;28;20033;-47
2023/07/15 01:45:46;;;;;;;4.55;1.00;;;;;;;16.61;100.00;99452.75;5050378;28;20548;-51
2023/07/15 01:48:11;;;;;;;7.95;0.63;;;;;;;16.66;100.00;99439.44;5036018;28;20595;-51
2023/07/15 01:50:37;;;;;;;12.65;1.08;;;;;;;16.61;100.00;99442.88;5053481;28;20073;-51
2023/07/15 01:53:02;;;;;;;4.03;0.68;;;;;;;16.60;100.00;99454.63;5046491;28;20454;-52
2023/07/15 01:55:28;;;;;;;7.38;0.85;;;;;;;16.49;100.00;99451.06;5042382;28;20032;-49
2023/07/15 01:57:53;;;;;;;5.90;0.98;;;;;;;16.40;100.00;99451.78;5036899;28;20368;-50
2023/07/15 02:00:20;;;;;;;8.02;0.98;;;;;;;16.27;100.00;99443.13;5052856;28;20096;-51
2023/07/15 02:02:46;;;;;;;7.38;1.27;;;;;;;16.25;100.00;99433.72;5053271;28;20119;-51
2023/07/15 02:05:11;;;;;;;4.38;1.00;;;;;;;16.18;100.00;99427.78;5047342;28;20025;-57
2023/07/15 02:07:37;;;;;;;2.95;0.50;;;;;;;16.17;100.00;99435.00;5027531;28;20047;-56
2023/07/15 02:10:03;;;;;;;8.73;0.70;;;;;;;16.16;100.00;99438.75;5052505;28;20405;-48
2023/07/15 02:12:28;;;;;;;10.00;0.70;;;;;;;16.15;100.00;99437.09;5037719;28;20032;-47
2023/07/15 02:14:54;;;;;;;4.90;1.35;;;;;;;16.11;100.00;99428.78;5039712;28;20104;-48
2023/07/15 02:17:23;;;;;;;7.28;0.82;;;;;;;16.16;100.00;99424.53;5038425;28;20033;-48
2023/07/15 02:19:52;;;;;;;5.88;0.50;;;;;;;16.18;100.00;99423.22;5049537;28;20177;-52
2023/07/15 02:22:18;;;;;;;10.13;0.77;;;;;;;16.18;100.00;99415.22;5046919;28;20190;-52
2023/07/15 02:24:43;;;;;;;5.28;0.57;;;;;;;16.16;100.00;99412.00;5045457;28;20059;-53
2023/07/15 02:27:09;;;;;;;7.25;0.93;;;;;;;16.14;100.00;99411.44;5046885;28;20540;-55
2023/07/15 02:29:34;;;;;;;8.02;1.90;;;;;;;16.21;100.00;99395.16;5046140;28;20513;-49
2023/07/15 02:32:00;;;;;;;7.05;0.73;;;;;;;16.27;100.00;99389.63;5046434;28;20041;-48
2023/07/15 02:34:25;;;;;;;8.18;1.13;;;;;;;16.35;100.00;99391.81;5042550;28;20040;-48
2023/07/15 02:36:52;;;;;;;7.82;0.63;;;;;;;16.35;100.00;99383.81;5040568;28;20538;-55
2023/07/15 02:39:18;;;;;;;6.10;1.30;;;;;;;16.32;100.00;99381.63;5043669;28;20358;-50
2023/07/15 02:41:44;;;;;;;8.10;1.50;;;;;;;16.30;100.00;99374.94;5056204;28;20388;-53
2023/07/15 02:44:09;;;;;;;4.25;0.68;;;;;;;16.23;100.00;99377.81;5039105;28;20120;-50
2023/07/15 02:46:35;;;;;;;9.60;1.70;;;;;;;16.22;100.00;99391.44;5034188;28;20043;-51
2023/07/15 02:49:01;;;;;;;6.22;0.63;;;;;;;16.25;100.00;99381.03;5044953;28;20473;-49
2023/07/15 02:51:26;;;;;;;5.03;0.93;;;;;;;16.36;100.00;99381.94;5053487;28;20071;-53
2023/07/15 02:53:52;;;;;;;9.88;1.85;;;;;;;16.40;100.00;99376.88;5050270;28;20039;-48
2023/07/15 02:56:17;;;;;;;6.70;1.50;;;;;;;16.40;100.00;99385.72;5053973;28;20032;-51
2023/07/15 02:58:43;;;;;;;5.55;1.40;;;;;;;16.51;100.00;99371.34;5054349;28;20040;-51
2023/07/15 03:01:09;;;;;;;4.35;1.70;;;;;;;16.50;100.00;99359.03;5048758;28;20099;-57
2023/07/15 03:03:35;;;;;;;4.55;0.63;;;;;;;16.13;100.00;99367.03;5044880;28;20504;-54
2023/07/15 03:06:01;;;;;;;4.63;0.93;;;;;;;16.02;100.00;99370.69;5040905;28;20042;-58
2023/07/15 03:08:26;;;;;;;6.97;0.75;;;;;;;15.90;100.00;99371.66;5045707;28;20146;-51
2023/07/15 03:10:52;;;;;;;4.00;1.23;;;;;;;15.94;100.00;99368.47;5044101;28;20033;-47
2023/07/15 03:13:18;;;;;;;6.15;0.77;;;;;;;15.86;100.00;99357.16;5054234;28;20135;-49
2023/07/15 03:15:44;;;;;;;4.72;0.80;;;;;;;15.83;100.00;99354.22;5055750;28;20032;-52
2023/07/15 03:18:10;;;;;;;4.90;1.50;;;;;;;15.88;100.00;99368.41;5043719;28;20033;-49
2023/07/15 03:20:35;;;;;;;7.72;1.65;;;;;;;15.98;100.00;99369.56;5050998;28;20020;-48
2023/07/15 03:23:00;;;;;;;7.55;1.33;;;;;;;16.04;100.00;99377.38;5049496;28;20048;-54
2023/07/15 03:25:26;;;;;;;10.75;1.42;;;;;;;16.07;100.00;99384.09;5039684;28;20048;-47
2023/07/15 03:27:51;;;;;;;5.90;0.65;;;;;;;16.20;100.00;99377.53;5035853;28;20040;-51
2023/07/15 03:30:18;;;;;;;6.00;1.00;;;;;;;16.21;100.00;99369.25;5050308;28;21475;-51
2023/07/15 03:32:44;;;;;;;9.25;1.25;;;;;;;16.28;100.00;99369.81;5053920;28;20454;-54
2023/07/15 03:35:10;;;;;;;6.47;1.27;;;;;;;16.43;100.00;99371.81;5052576;28;20137;-49
2023/07/15 03:37:37;;;;;;;10.45;1.50;;;;;;;16.32;100.00;99364.78;5044463;28;20540;-51
2023/07/15 03:40:07;;;;;;;4.78;1.65;;;;;;;16.44;100.00;99368.06;5046914;28;20052;-51
2023/07/15 03:42:32;;;;;;;5.15;1.00;;;;;;;16.46;100.00;99363.28;5037128;28;20097;-47
2023/07/15 03:44:58;;;;;;;8.13;1.95;;;;;;;16.41;100.00;99368.59;5051892;28;20032;-49
2023/07/15 03:47:23;;;;;;;5.72;1.45;;;;;;;16.45;100.00;99366.22;5037456;28;20070;-52
2023/07/15 03:49:48;;;;;;;9.90;0.50;;;;;;;16.43;100.00;99363.78;5043851;28;20036;-55
2023/07/15 03:52:14;;;;;;;8.07;1.60;;;;;;;16.48;100.00;99363.84;5048099;28;20033;-58
2023/07/15 03:54:39;;;;;;;10.07;2.47;;;;;;;16.53;100.00;99349.69;5033347;28;20540;-48
2023/07/15 03:57:04;;;;;;;8.02;0.95;;;;;;;16.52;100.00;99345.38;5042303;28;20048;-46
2023/07/15 03:59:31;;;;;;;8.02;1.42;;;;;;;16.56;100.00;99339.25;5042781;28;20115;-48
2023/07/15 04:01:56;;;;;;;9.52;1.00;;;;;;;16.50;100.00;99344.84;5053966;28;20067;-46
2023/07/15 04:04:22;;;;;;;10.18;2.05;;;;;;;16.40;100.00;99337.56;5031925;28;20032;-51
2023/07/15 04:06:48;;;;;;;7.50;1.13;;;;;;;16.38;100.00;99346.91;5039687;28;20040;-47
2023/07/15 04:09:14;;;;;;;6.40;1.77;;;;;;;16.42;100.00;99348.00;5043619;28;21785;-48
2023/07/15 04:11:39;;;;;;;3.65;0.68;;;;;;;16.40;100.00;99344.78;5042988;28;20029;-53
2023/07/15 04:14:06;;;;;;;6.85;0.77;;;;;;;16.45;100.00;99342.16;5049667;28;20123;-53
2023/07/15 04:16:31;;;;;;;5.10;1.00;;;;;;;16.51;100.00;99341.09;5048707;28;20020;-47
2023/07/15 04:18:56;;;;;;;8.15;1.20;;;;;;;16.46;100.00;99335.72;5046545;28;20032;-49
2023/07/15 04:21:22;;;;;;;12.57;1.40;;;;;;;16.45;100.00;99344.81;5044722;28;20032;-54
2023/07/15 04:23:47;;;;;;;5.28;1.17;;;;;;;16.52;100.00;99335.50;5037729;28;20025;-54
2023/07/15 04:26:14;;;;;;;4.80;1.15;;;;;;;16.48;100.00;99341.63;5044415;28;20361;-51
2023/07/15 04:28:39;;;;;;;8.40;1.42;;;;;;;16.57;100.00;99337.38;5046607;28;20578;-48
2023/07/15 04:31:05;;;;;;;13.40;1.85;;;;;;;16.56;100.00;99335.78;5045805;28;20045;-50
2023/07/15 04:33:31;;;;;;;5.13;0.68;;;;;;;16.62;100.00;99329.41;5038745;28;20033;-47
2023/07/15 04:35:56;;;;;;;3.50;0.68;;;;;;;16.59;100.00;99329.91;5035767;28;20025;-50
2023/07/15 04:38:22;;;;;;;7.65;1.42;;;;;;;16.54;100.00;99319.97;5045028;28;20024;-46
2023/07/15 04:40:48;;;;;;;4.70;0.75;;;;;;;16.52;100.00;99318.63;5040691;28;20116;-47
2023/07/15 04:43:13;;;;;;;6.00;0.80;;;;;;;16.54;100.00;99330.69;5052169;28;20058;-55
2023/07/15 04:45:38;;;;;;;3.47;0.95;;;;;;;16.57;100.00;99319.50;5046683;28;20030;-50
2023/07/15 04:48:04;;;;;;;5.57;1.23;;;;;;;16.67;100.00;99317.91;5054359;28;20028;-49
2023/07/15 04:50:29;;;;;;;3.67;0.40;;;;;;;16.63;100.00;99312.28;5044475;28;20046;-56
2023/07/15 04:52:55;;;;;;;9.82;1.40;;;;;;;16.69;100.00;99305.91;5055131;28;20089;-49
2023/07/15 04:55:21;;;;;;;7.68;1.15;;;;;;;16.72;100.00;99305.38;5042201;28;20040;-50
2023/07/15 04:57:46;;;;;;;2.75;0.77;;;;;;;16.66;100.00;99303.75;5045033;28;20439;-49
2023/07/15 05:00:12;;;;;;;4.25;1.00;;;;;;;16.69;100.00;99300.53;5033834;28;20029;-48
2023/07/15 05:02:37;;;;;;;4.68;1.38;;;;;;;16.65;100.00;99299.47;5041239;28;20041;-51
2023/07/15 05:05:04;;;;;;;4.25;1.80;;;;;;;16.69;100.00;99295.19;5041740;28;20031;-49
2023/07/15 05:07:29;;;;;;;6.35;1.05;;;;;;;16.72;100.00;99294.66;5039267;28;20040;-48
2023/07/15 05:09:55;;;;;;;5.63;0.73;;;;;;;16.68;100.00;99293.59;5039795;28;20029;-57
2023/07/15 05:12:20;;;;;;;11.82;1.25;;;;;;;16.78;100.00;99299.03;5044980;28;20120;-54
2023/07/15 05:14:45;;;;;;;2.28;0.50;;;;;;;16.78;100.00;99288.31;5040751;28;20032;-52
2023/07/15 05:17:12;;;;;;;3.60;0.45;;;;;;;16.69;100.00;99286.34;5034166;28;20543;-50
2023/07/15 05:19:37;;;;;;;8.48;1.50;;;;;;;16.70;100.00;99291.47;5046531;28;20180;-49
2023/07/15 05:22:04;;;;;;;2.00;0.30;;;;;;;16.70;100.00;99290.63;5043779;28;20048;-47
2023/07/15 05:24:29;;;;;;;10.38;1.48;;;;;;;16.67;100.00;99301.88;5052287;28;20048;-51
2023/07/15 05:26:55;;;;;;;3.30;0.40;;;;;;;16.64;100.00;99311.22;5055063;28;20031;-52
2023/07/15 05:29:21;;;;;;;5.72;1.08;;;;;;;16.65;100.00;99312.84;5049096;28;20033;-49
2023/07/15 05:31:46;;;;;;;2.78;1.05;;;;;;;16.65;100.00;99320.88;5057320;28;20044;-54
2023/07/15 05:34:11;;;;;;;2.55;0.70;;;;;;;16.61;100.00;99318.97;5048600;28;20482;-47
2023/07/15 05:36:37;;;;;;;2.17;0.43;;;;;;;16.65;100.00;99326.22;5052908;28;20020;-51
2023/07/15 05:39:02;;;;;;;4.18;0.52;;;;;;;16.64;100.00;99324.59;5049982;28;20465;-52
2023/07/15 05:41:28;;;;;;;4.85;0.70;;;;;;;16.63;100.00;99314.97;5035165;28;20120;-55
2023/07/15 05:43:53;;;;;;;4.40;0.35;;;;;;;16.73;100.00;99320.38;5043310;28;20033;-51
2023/07/15 05:46:18;;;;;;;3.63;0.30;;;;;;;16.75;100.00;99310.22;5027371;28;20105;-51
2023/07/15 05:48:44;;;;;;;2.72;0.63;;;;;;;16.81;100.00;99313.75;5052341;28;20028;-51
2023/07/15 05:51:10;;;;;;;4.97;0.65;;;;;;;16.87;100.00;99317.25;5043729;28;20148;-47
2023/07/15 05:53:35;;;;;;;5.57;0.95;;;;;;;16.92;100.00;99314.59;5044086;28;20065;-52
2023/07/15 05:56:01;;;;;;;5.63;0.73;;;;;;;16.90;100.00;99306.81;5046273;28;20033;-54
2023/07/15 05:58:26;;;;;;;11.65;0.50;;;;;;;16.98;100.00;99313.56;5049564;28;20105;-57
2023/07/15 06:00:52;;;;;;;2.33;0.50;;;;;;;16.99;100.00;99307.16;5044287;28;20075;-48
2023/07/15 06:03:17;;;;;;;2.05;0.73;;;;;;;16.98;100.00;99310.88;5046373;28;20336;-48
2023/07/15 06:05:44;;;;;;;3.92;0.88;;;;;;;17.05;100.00;99303.41;5042094;28;20032;-59
2023/07/15 06:08:09;;;;;;;5.28;1.55;;;;;;;17.17;100.00;99298.63;5053302;28;20447;-58
2023/07/15 06:10:34;;;;;;;4.00;0.22;;;;;;;17.43;100.00;99293.34;5041877;28;20112;-49
2023/07/15 06:13:01;;;;;;;4.57;0.80;;;;;;;17.63;100.00;99285.34;5045004;28;20055;-48
2023/07/15 06:15:26;;;;;;;7.43;0.68;;;;;;;17.79;100.00;99277.31;5051680;28;20472;-47
2023/07/15 06:17:52;;;;;;;8.80;0.60;;;;;;;17.89;100.00;99280.03;5047067;28;20032;-49
2023/07/15 06:20:20;;;;;;;4.38;0.40;;;;;;;17.89;100.00;99274.69;5054043;28;20537;-47
2023/07/15 06:22:46;;;;;;;10.00;1.85;;;;;;;18.05;100.00;99270.09;5049381;28;20381;-47
2023/07/15 06:25:12;;;;;;;6.40;1.83;;;;;;;18.06;100.00;99259.09;5049316;28;20037;-51
2023/07/15 06:27:38;;;;;;;0.98;0.35;;;;;;;18.37;100.00;99253.69;5046254;28;20206;-49
2023/07/15 06:30:06;;;;;;;2.80;1.05;;;;;;;18.46;100.00;99246.69;5036862;28;20142;-50
2023/07/15 06:32:31;;;;;;;11.13;1.45;;;;;;;18.41;100.00;99249.38;5051520;28;20048;-47
2023/07/15 06:34:57;;;;;;;4.72;0.75;;;;;;;18.26;100.00;99236.00;5029738;28;20059;-50
2023/07/15 06:37:22;;;;;;;5.80;1.20;;;;;;;18.36;100.00;99246.72;5053753;28;20513;-50
2023/07/15 06:39:47;;;;;;;6.10;0.50;;;;;;;18.38;100.00;99233.84;5046223;28;20037;-52
2023/07/15 06:42:13;;;;;;;2.67;0.60;;;;;;;18.42;100.00;99236.75;5048612;28;20037;-50
2023/07/15 06:44:38;;;;;;;5.80;0.77;;;;;;;18.34;100.00;99227.41;5051631;28;20028;-47
2023/07/15 06:47:03;;;;;;;8.10;1.13;;;;;;;18.44;100.00;99226.56;5050981;28;20035;-47
2023/07/15 06:49:29;;;;;;;3.97;0.98;;;;;;;18.39;100.00;99227.38;5046427;28;20477;-53
2023/07/15 06:51:54;;;;;;;5.50;0.45;;;;;;;18.55;100.00;99232.69;5049941;28;20029;-51
2023/07/15 06:54:20;;;;;;;5.25;0.90;;;;;;;18.56;100.00;99226.25;5050841;28;20042;-53
2023/07/15 06:56:45;;;;;;;5.15;2.03;;;;;;;18.44;100.00;99224.69;5049846;28;20037;-62
2023/07/15 06:59:10;;;;;;;8.00;1.20;;;;;;;18.31;100.00;99209.16;5048693;28;20036;-54
2023/07/15 07:01:36;;;;;;;4.72;0.65;;;;;;;18.29;100.00;99217.47;5048698;28;20423;-47
2023/07/15 07:04:01;;;;;;;5.22;2.60;;;;;;;18.18;100.00;99201.69;5044874;28;20394;-58
2023/07/15 07:06:28;;;;;;;7.95;0.80;;;;;;;18.22;100.00;99208.09;5029113;28;20690;-51
2023/07/15 07:08:54;;;;;;;3.72;0.60;;;;;;;18.14;100.00;99201.41;5039500;28;20056;-52
2023/07/15 07:11:20;;;;;;;2.55;1.05;;;;;;;18.22;100.00;99208.09;5034584;28;20067;-51
2023/07/15 07:13:45;;;;;;;6.40;0.35;;;;;;;18.23;100.00;99210.53;5040269;28;20116;-48
2023/07/15 07:16:11;;;;;;;4.05;0.45;;;;;;;18.32;100.00;99216.13;5047632;28;20137;-52
2023/07/15 07:18:37;;;;;;;8.23;1.00;;;;;;;18.48;100.00;99212.34;5044500;28;20650;-49
2023/07/15 07:21:02;;;;;;;5.68;0.70;;;;;;;18.64;100.00;99207.72;5051126;28;20024;-54
2023/07/15 07:23:29;;;;;;;5.18;1.65;;;;;;;18.71;100.00;99215.44;5052235;28;20349;-50
2023/07/15 07:25:55;;;;;;;6.78;0.82;;;;;;;18.67;100.00;99215.22;5039184;28;20146;-56
2023/07/15 07:28:37;;;;;;;3.85;1.15;;;;;;;18.84;100.00;99214.06;5045439;28;20486;-60
2023/07/15 07:31:03;;;;;;;5.25;0.47;;;;;;;18.96;100.00;99209.97;5049597;28;20052;-51
2023/07/15 07:33:28;;;;;;;3.15;0.50;;;;;;;19.08;100.00;99214.25;5052329;28;20383;-57
2023/07/15 07:35:53;;;;;;;3.45;1.13;;;;;;;19.14;100.00;99213.13;5045921;28;20125;-52
2023/07/15 07:38:19;;;;;;;1.70;0.50;;;;;;;19.24;100.00;99202.31;5031174;28;20481;-57
2023/07/15 07:40:46;;;;;;;6.88;1.10;;;;;;;19.23;100.00;99205.25;5045905;28;20036;-55
2023/07/15 07:43:11;;;;;;;2.60;0.50;;;;;;;19.32;100.00;99204.41;5042036;28;20040;-62
2023/07/15 07:45:36;;;;;;;9.88;1.65;;;;;;;19.24;100.00;99193.44;5038878;28;20029;-55
2023/07/15 07:48:02;;;;;;;4.22;1.05;;;;;;;19.16;100.00;99198.31;5049579;28;20109;-47
2023/07/15 07:50:27;;;;;;;8.48;1.13;;;;;;;19.19;100.00;99194.28;5053317;28;20029;-50
2023/07/15 07:52:52;;;;;;;14.82;1.45;;;;;;;19.17;100.00;99201.81;5043525;28;20092;-64
2023/07/15 07:55:18;;;;;;;5.90;0.50;;;;;;;19.45;100.00;99194.91;5049319;28;20029;-60
2023/07/15 07:57:43;;;;;;;2.40;1.02;;;;;;;19.60;100.00;99183.22;5043475;28;20017;-64
2023/07/15 08:00:09;;;;;;;2.90;0.82;;;;;;;19.46;100.00;99176.88;5038755;28;20031;-52
2023/07/15 08:02:34;;;;;;;2.78;0.75;;;;;;;19.53;100.00;99177.38;5041026;28;20486;-52
2023/07/15 08:05:00;;;;;;;3.38;0.65;;;;;;;19.46;100.00;99168.81;5036873;28;20051;-53
2023/07/15 08:07:25;;;;;;;5.82;1.45;;;;;;;19.31;100.00;99167.88;5046591;28;20020;-58
2023/07/15 08:09:50;;;;;;;5.32;0.68;;;;;;;19.18;100.00;99166.63;5043929;28;20024;-57
2023/07/15 08:12:17;;;;;;;3.47;0.88;;;;;;;19.17;100.00;99180.31;5046797;28;20032;-50
2023/07/15 08:14:43;;;;;;;4.65;1.75;;;;;;;18.87;100.00;99174.06;5045741;28;20036;-58
2023/07/15 08:17:08;;;;;;;6.55;0.47;;;;;;;18.83;100.00;99175.69;5039922;28;20020;-55
2023/07/15 08:19:33;;;;;;;3.00;1.02;;;;;;;18.79;100.00;99171.94;5038644;28;20079;-59
2023/07/15 08:21:59;;;;;;;7.30;1.67;;;;;;;18.64;100.00;99175.50;5039311;28;20044;-62
2023/07/15 08:24:25;;;;;;;2.13;0.57;;;;;;;18.53;100.00;99173.91;5030437;28;20404;-65
2023/07/15 08:26:51;;;;;;;6.70;1.75;;;;;;;18.46;100.00;99155.44;5048128;28;20461;-56
2023/07/15 08:29:16;;;;;;;5.25;0.32;;;;;;;18.49;100.00;99186.28;5049726;28;20041;-55
2023/07/15 08:31:41;;;;;;;3.30;1.17;;;;;;;18.53;100.00;99182.78;5044517;28;20547;-49
2023/07/15 08:34:07;;;;;;;10.05;1.83;;;;;;;18.66;100.00;99196.69;5042818;28;20091;-52
2023/07/15 08:36:32;;;;;;;5.63;0.93;;;;;;;18.70;100.00;99174.38;5042508;28;20044;-60
2023/07/15 08:38:57;;;;;;;4.28;1.48;;;;;;;18.98;100.00;99184.75;5046519;28;20028;-61
2023/07/15 08:41:24;;;;;;;3.95;0.55;;;;;;;19.32;100.00;99172.16;5047290;28;20020;-55
2023/07/15 08:43:50;;;;;;;7.72;1.30;;;;;;;19.70;100.00;99177.00;5039492;28;20029;-52
2023/07/15 08:46:29;;;;;;;2.45;0.45;;;;;;;19.81;100.00;99170.44;5041258;28;20386;-54
2023/07/15 08:48:56;;;;;;;5.63;1.70;;;;;;;19.93;100.00;99156.56;5044547;28;20038;-54
2023/07/15 08:51:30;;;;;;;3.67;0.30;;;;;;;20.15;100.00;99162.25;5055575;28;20044;-55
2023/07/15 08:53:57;;;;;;;6.07;0.60;;;;;;;20.20;100.00;99159.50;5052867;28;20123;-53
2023/07/15 08:56:24;;;;;;;2.28;0.25;;;;;;;19.97;100.00;99153.03;5056368;28;20373;-56
2023/07/15 08:58:50;;;;;;;2.92;0.60;;;;;;;20.22;100.00;99164.63;5055438;28;21376;-57
2023/07/15 09:01:15;;;;;;;4.05;0.40;;;;;;;20.10;100.00;99165.00;5055356;28;20504;-61
2023/07/15 09:03:40;;;;;;;4.45;0.20;;;;;;;20.14;100.00;99155.28;5054960;28;20032;-56
2023/07/15 09:06:07;;;;;;;3.75;0.90;;;;;;;20.23;100.00;99153.56;5059450;28;20032;-56
2023/07/15 09:08:33;;;;;;;5.90;0.70;;;;;;;20.43;100.00;99157.09;5055174;28;20455;-59
2023/07/15 09:10:59;;;;;;;2.22;0.65;;;;;;;20.65;100.00;99149.31;5057861;28;20148;-54
2023/07/15 09:13:29;;;;;;;5.18;0.80;;;;;;;20.69;100.00;99160.28;5062143;28;20033;-64
2023/07/15 09:15:55;;;;;;;2.80;0.50;;;;;;;20.67;100.00;99165.97;5053694;28;20052;-61
2023/07/15 09:18:22;;;;;;;2.63;0.35;;;;;;;20.85;100.00;99152.81;5053326;28;20020;-61
2023/07/15 09:20:47;;;;;;;3.15;0.75;;;;;;;20.81;100.00;99160.69;5053871;28;20028;-54
2023/07/15 09:23:14;;;;;;;0.98;0.38;;;;;;;20.98;100.00;99168.25;5040668;28;20078;-63
2023/07/15 09:25:49;;;;;;;4.10;0.52;;;;;;;21.29;100.00;99160.50;5049921;28;20449;-64
2023/07/15 09:28:14;;;;;;;6.07;0.50;;;;;;;21.07;100.00;99171.09;5046089;28;20422;-60
2023/07/15 09:30:40;;;;;;;1.67;0.10;;;;;;;20.93;100.00;99162.91;5049896;28;20040;-58
2023/07/15 09:33:06;;;;;;;2.25;0.40;;;;;;;20.60;100.00;99162.03;5057371;28;20025;-52
2023/07/15 09:35:36;;;;;;;2.28;0.38;;;;;;;20.82;100.00;99161.47;5044528;28;20044;-56
2023/07/15 09:38:02;;;;;;;3.38;0.50;;;;;;;21.18;100.00;99153.66;5052783;28;20068;-56
2023/07/15 09:40:40;;;;;;;2.55;0.45;;;;;;;21.13;100.00;99138.38;5055913;28;20466;-50
2023/07/15 09:43:05;;;;;;;5.80;0.40;;;;;;;20.74;100.00;99151.34;5053161;28;20025;-57
2023/07/15 09:45:33;;;;;;;6.40;0.85;;;;;;;20.62;100.00;99163.34;5038211;28;20031;-59
2023/07/15 09:48:00;;;;;;;4.50;0.65;;;;;;;20.25;100.00;99164.03;5051688;28;20033;-59
2023/07/15 09:50:25;;;;;;;2.63;0.50;;;;;;;19.63;100.00;99209.53;5050158;28;20037;-55
2023/07/15 09:52:54;;;;;;;3.53;1.23;;;;;;;19.25;100.00;99206.59;5026457;28;20043;-52
2023/07/15 09:55:22;;;;;;;5.22;0.70;;;;;;;19.08;100.00;99224.97;5057680;28;20503;-61
2023/07/15 09:58:15;;;;;;;3.47;0.50;;;;;;;19.13;100.00;99219.59;5057712;28;20032;-60
2023/07/15 10:00:45;;;;;;;1.08;0.35;;;;;;;19.00;100.00;99209.44;5043661;28;20045;-55
2023/07/15 10:03:20;;;;;;;8.85;0.75;;;;;;;18.84;100.00;99212.19;5056652;28;20044;-55
2023/07/15 10:05:47;;;;;;;7.13;1.70;;;;;;;18.82;100.00;99213.53;5047946;28;20082;-53
2023/07/15 10:08:13;;;;;;;4.45;0.40;;;;;;;19.12;100.00;99209.91;5049148;28;20029;-51
2023/07/15 10:10:40;;;;;;;5.05;1.63;;;;;;;19.31;100.00;99205.50;5053340;28;20375;-52
2023/07/15 10:13:06;;;;;;;4.55;0.80;;;;;;;19.73;100.00;99198.72;5055658;28;20098;-55
2023/07/15 10:15:31;;;;;;;4.35;0.75;;;;;;;20.02;100.00;99198.72;5054271;28;20024;-55
2023/07/15 10:17:56;;;;;;;7.80;1.13;;;;;;;20.31;100.00;99192.50;5050818;28;20052;-58
2023/07/15 10:20:22;;;;;;;3.58;0.77;;;;;;;20.65;100.00;99187.03;5054270;28;20035;-55
2023/07/15 10:22:49;;;;;;;3.38;0.45;;;;;;;20.87;100.00;99172.19;5049628;28;20375;-67
2023/07/15 10:25:17;;;;;;;6.18;1.00;;;;;;;20.95;100.00;99176.91;5052180;28;20136;-53
2023/07/15 10:27:43;;;;;;;4.63;0.60;;;;;;;21.26;100.00;99176.47;5050745;28;20037;-49
2023/07/15 10:30:27;;;;;;;2.50;0.45;;;;;;;21.63;100.00;99164.81;5053977;28;20173;-61
2023/07/15 10:33:03;;;;;;;2.03;1.15;;;;;;;21.59;100.00;99160.34;5054783;28;20032;-53
2023/07/15 10:35:31;;;;;;;10.02;1.20;;;;;;;21.24;100.00;99154.38;5056500;28;21159;-66
2023/07/15 10:38:01;;;;;;;7.80;0.98;;;;;;;21.28;100.00;99155.41;5056631;28;20303;-53
2023/07/15 10:40:54;;;;;;;3.88;0.63;;;;;;;21.51;100.00;99159.91;5052297;28;20334;-58
2023/07/15 10:43:35;;;;;;;8.85;0.77;;;;;;;21.86;100.00;99163.06;5057419;28;20040;-56
2023/07/15 10:46:08;;;;;;;5.57;1.08;;;;;;;22.47;100.00;99154.94;5050862;28;20066;-55
2023/07/15 10:48:35;;;;;;;6.28;0.85;;;;;;;22.76;100.00;99159.97;5049945;28;20032;-53
2023/07/15 10:51:08;;;;;;;10.27;0.90;;;;;;;22.75;100.00;99142.19;5052082;28;20033;-47
2023/07/15 10:53:35;;;;;;;10.73;1.15;;;;;;;22.58;100.00;99154.41;5048031;28;20589;-55
2023/07/15 10:56:09;;;;;;;3.90;0.82;;;;;;;22.07;100.00;99166.22;5046955;28;20116;-62
2023/07/15 10:58:35;;;;;;;7.40;1.45;;;;;;;22.09;100.00;99147.78;5056013;28;20376;-57
2023/07/15 11:01:05;;;;;;;6.35;1.23;;;;;;;22.60;100.00;99129.78;5052098;28;20520;-61
2023/07/15 11:03:32;;;;;;;8.30;1.27;;;;;;;22.90;100.00;99132.91;5055449;28;20095;-55
2023/07/15 11:05:58;;;;;;;5.70;1.15;;;;;;;23.41;100.00;99147.94;5053503;28;20032;-50
2023/07/15 11:08:25;;;;;;;6.20;0.35;;;;;;;23.86;100.00;99137.09;5050197;28;20087;-54
2023/07/15 11:10:58;;;;;;;2.65;0.45;;;;;;;23.95;100.00;99135.22;5057730;28;20346;-58
2023/07/15 11:13:24;;;;;;;4.63;0.95;;;;;;;23.45;100.00;99138.91;5054596;28;20100;-54
2023/07/15 11:15:49;;;;;;;2.40;0.30;;;;;;;23.42;100.00;99138.75;5056876;28;22924;-55
2023/07/15 11:18:16;;;;;;;5.93;0.60;;;;;;;23.45;100.00;99130.81;5053348;28;20028;-53
2023/07/15 11:20:44;;;;;;;3.97;0.60;;;;;;;23.31;100.00;99138.19;5054334;28;20063;-63